This is the latest recevied weather packets stored in our database for station/object KF4HJW. If no packets are shown the sender has not sent any weather packets the latest 10 day(s).
| Time | Temp. | Humidity | Pressure | Rain* | Wind** | Luminosity | Snow |
|---|---|---|---|---|---|---|---|
| 1777736421 | 12.78° C | 81% | 1012.7 hPa | 0.25 mm | - | - | - |
| 1777732821 | 13.33° C | 70% | 1012.7 hPa | 0 mm | - | - | - |
| 1777729220 | 13.89° C | 76% | 1011.7 hPa | 0 mm | - | - | - |
| 1777725621 | 13.33° C | 76% | 1011.7 hPa | 0 mm | - | - | - |
| 1777722021 | 12.78° C | 83% | 1012 hPa | 0 mm | - | - | - |
| 1777718421 | 12.22° C | 86% | 1011.6 hPa | 0 mm | - | - | - |
| 1777711221 | 13.33° C | 86% | 1010.9 hPa | 0 mm | - | - | - |
| 1777707621 | 13.33° C | 85% | 1010.5 hPa | 0 mm | - | - | - |
| 1777704021 | 13.33° C | 83% | 1010.6 hPa | 0 mm | - | - | - |
| 1777689621 | 14.44° C | 73% | 1012.2 hPa | 0 mm | - | - | - |
| 1777686021 | 15.56° C | 67% | 1012.1 hPa | 0 mm | - | - | - |
| 1777682421 | 16.67° C | 65% | 1011.3 hPa | 0 mm | - | - | - |
| 1777675220 | 17.22° C | 56% | 1011 hPa | 0 mm | - | - | - |
| 1777650021 | 16.67° C | 48% | 1014.8 hPa | 0 mm | - | - | - |
| 1777642820 | 13.89° C | 62% | 1015 hPa | 0 mm | - | - | - |
| 1777632020 | 7.78° C | 81% | 1014.4 hPa | 0 mm | - | - | - |
| 1777617622 | 12.22° C | 62% | 1012.9 hPa | 0 mm | - | - | - |
| 1777603220 | 16.11° C | 79% | 1011 hPa | 0 mm | - | - | - |
| 1777599620 | 16.67° C | 83% | 1009.7 hPa | 0 mm | - | - | - |
| 1777596022 | 17.22° C | 78% | 1008.4 hPa | 0 mm | - | - | - |
| 1777588822 | 20° C | 65% | 1007.2 hPa | 0 mm | - | - | - |
| 1777574422 | 21.11° C | 60% | 1007.7 hPa | 0 mm | - | - | - |
| 1777560021 | 17.22° C | 79% | 1008.2 hPa | 0 mm | - | - | - |
| 1777552822 | 16.11° C | 90% | 1007.9 hPa | 0 mm | - | - | - |
| 1777545620 | 16.67° C | 95% | 1006.2 hPa | 0 mm | - | - | - |
* Rain latest hour (hover to see other rain measurements)
** Current wind speed in m/s (hover to see current wind gust speed)